createdAt,value
2024-05-09T00:00:22.315Z,8.2676
2024-05-09T00:01:18.970Z,7.5530
2024-05-09T00:02:21.490Z,7.5764
2024-05-09T00:03:24.061Z,7.6463
2024-05-09T00:04:26.635Z,7.6117
2024-05-09T00:05:29.365Z,7.4705
2024-05-09T00:06:31.867Z,7.8084
2024-05-09T00:07:34.368Z,7.6066
2024-05-09T00:08:37.219Z,7.6572
2024-05-09T00:09:39.522Z,7.6971
2024-05-09T00:10:42.206Z,8.2329
2024-05-09T00:11:44.733Z,8.1006
2024-05-09T00:12:47.317Z,7.7247
2024-05-09T00:13:49.872Z,7.5183
2024-05-09T00:14:52.634Z,7.4312
2024-05-09T00:15:55.010Z,7.8366
2024-05-09T00:16:57.649Z,7.5955
2024-05-09T00:18:00.402Z,8.0086
2024-05-09T00:19:02.857Z,7.5891
2024-05-09T00:20:14.245Z,7.9136
2024-05-09T00:21:07.978Z,7.7646
2024-05-09T00:22:10.522Z,7.8466
2024-05-09T00:23:13.723Z,8.2902
2024-05-09T00:24:15.685Z,7.7586
2024-05-09T00:25:18.296Z,7.5948
2024-05-09T00:26:20.911Z,7.4232
2024-05-09T00:27:23.466Z,7.8605
2024-05-09T00:28:26.048Z,8.1605
2024-05-09T00:29:28.710Z,7.9252
2024-05-09T00:30:34.979Z,7.9715
2024-05-09T00:31:33.767Z,8.5123
2024-05-09T00:32:36.605Z,8.4173
2024-05-09T00:33:39.139Z,7.8434
2024-05-09T00:34:41.512Z,7.7756
2024-05-09T00:35:44.101Z,8.2666
2024-05-09T00:36:46.679Z,8.0365
2024-05-09T00:37:49.254Z,7.8475
2024-05-09T00:38:51.815Z,7.8056
2024-05-09T00:39:54.415Z,8.0212
2024-05-09T00:40:57.038Z,7.7482
2024-05-09T00:41:59.583Z,8.1169
2024-05-09T00:43:02.148Z,7.7479
2024-05-09T00:44:04.769Z,8.2097
2024-05-09T00:45:07.306Z,8.3675
2024-05-09T00:46:09.923Z,7.7456
2024-05-09T00:47:12.555Z,8.1668
2024-05-09T00:48:17.721Z,8.2136
2024-05-09T00:49:17.794Z,7.9298
2024-05-09T00:50:29.354Z,7.8278
2024-05-09T00:51:22.866Z,8.1971
2024-05-09T00:52:25.406Z,8.1014
2024-05-09T00:53:28.055Z,8.5287
2024-05-09T00:54:30.551Z,7.9156
2024-05-09T00:55:33.171Z,8.0980
2024-05-09T00:56:35.807Z,8.5320
2024-05-09T00:57:38.300Z,8.0846
2024-05-09T00:58:40.894Z,8.1984
2024-05-09T00:59:43.466Z,8.3636
2024-05-09T01:00:46.162Z,8.5188
2024-05-09T01:01:48.774Z,8.6820
2024-05-09T01:02:51.304Z,8.5206
2024-05-09T01:03:54.054Z,8.6012
2024-05-09T01:04:56.463Z,8.5230
2024-05-09T01:05:59.074Z,8.1608
2024-05-09T01:07:01.600Z,8.7752
2024-05-09T01:08:04.212Z,8.7258
2024-05-09T01:09:06.748Z,8.3763
2024-05-09T01:10:14.039Z,8.1740
2024-05-09T01:11:11.966Z,8.0705
2024-05-09T01:12:14.680Z,8.1349
2024-05-09T01:13:17.127Z,8.6939
2024-05-09T01:14:19.690Z,8.2973
2024-05-09T01:15:22.207Z,8.2809
2024-05-09T01:16:24.799Z,8.3853
2024-05-09T01:17:27.512Z,8.5161
2024-05-09T01:18:30.089Z,8.3436
2024-05-09T01:19:32.833Z,8.5202
2024-05-09T01:20:41.514Z,8.0169
2024-05-09T01:21:37.717Z,8.4549
2024-05-09T01:22:40.300Z,8.9471
2024-05-09T01:23:42.977Z,8.5977
2024-05-09T01:24:45.452Z,8.3571
2024-05-09T01:25:48.090Z,8.3834
2024-05-09T01:26:50.621Z,8.1700
2024-05-09T01:27:53.207Z,8.6910
2024-05-09T01:28:55.830Z,9.5324
2024-05-09T01:29:58.368Z,8.5037
2024-05-09T01:31:01.007Z,8.2616
2024-05-09T01:32:03.637Z,8.6822
2024-05-09T01:33:07.967Z,8.5772
2024-05-09T01:34:08.806Z,8.4689
2024-05-09T01:35:11.391Z,8.1019
2024-05-09T01:36:13.946Z,8.3948
2024-05-09T01:37:16.559Z,8.8478
2024-05-09T01:38:19.136Z,8.8981
2024-05-09T01:39:21.705Z,8.1762
2024-05-09T01:40:33.489Z,9.1203
2024-05-09T01:41:26.946Z,9.0394
2024-05-09T01:42:29.453Z,8.9610
2024-05-09T01:43:32.051Z,8.1457
2024-05-09T01:44:34.692Z,8.8184
2024-05-09T01:45:37.207Z,8.8399
2024-05-09T01:46:39.821Z,8.1130
2024-05-09T01:47:42.693Z,8.4535
2024-05-09T01:48:45.028Z,8.7753
2024-05-09T01:49:47.637Z,8.3075
2024-05-09T01:50:50.156Z,8.4658
2024-05-09T01:51:52.716Z,8.4830
2024-05-09T01:52:55.338Z,8.6107
2024-05-09T01:53:57.905Z,8.5915
2024-05-09T01:55:03.524Z,8.9245
2024-05-09T01:56:03.166Z,8.7241
2024-05-09T01:57:05.704Z,8.4283
2024-05-09T01:58:08.210Z,8.7106
2024-05-09T01:59:10.857Z,8.8255
2024-05-09T02:00:18.798Z,8.5915
2024-05-09T02:01:16.027Z,8.8300
2024-05-09T02:02:18.701Z,9.2126
2024-05-09T02:03:21.472Z,8.8634
2024-05-09T02:04:23.941Z,9.1246
2024-05-09T02:05:26.353Z,8.7288
2024-05-09T02:06:28.908Z,8.8244
2024-05-09T02:07:31.497Z,9.0507
2024-05-09T02:08:34.222Z,8.2806
2024-05-09T02:09:36.694Z,8.6137
2024-05-09T02:10:39.270Z,9.0831
2024-05-09T02:11:41.951Z,8.6684
2024-05-09T02:12:44.423Z,8.5518
2024-05-09T02:13:47.017Z,8.9527
2024-05-09T02:14:49.714Z,9.1117
2024-05-09T02:15:52.262Z,9.1086
2024-05-09T02:16:54.831Z,8.9793
2024-05-09T02:17:57.479Z,9.2579
2024-05-09T02:19:00.013Z,9.2917
2024-05-09T02:20:02.765Z,9.2848
2024-05-09T02:21:05.256Z,8.4204
2024-05-09T02:22:07.681Z,8.6785
2024-05-09T02:23:10.368Z,8.5398
2024-05-09T02:24:12.861Z,8.5700
2024-05-09T02:25:15.557Z,8.5916
2024-05-09T02:26:18.132Z,8.7379
2024-05-09T02:27:20.631Z,8.8044
2024-05-09T02:28:23.301Z,8.5497
2024-05-09T02:29:25.916Z,8.4131
2024-05-09T02:30:36.373Z,8.7070
2024-05-09T02:31:30.958Z,8.8643
2024-05-09T02:32:33.696Z,8.9291
2024-05-09T02:33:36.479Z,9.4406
2024-05-09T02:34:38.848Z,8.9116
2024-05-09T02:35:41.455Z,8.3619
2024-05-09T02:36:43.873Z,8.7241
2024-05-09T02:37:46.664Z,9.0774
2024-05-09T02:38:49.043Z,9.1947
2024-05-09T02:39:51.625Z,8.7085
2024-05-09T02:40:54.234Z,8.9666
2024-05-09T02:41:56.793Z,9.0903
2024-05-09T02:42:59.438Z,9.2520
2024-05-09T02:44:02.021Z,9.4839
2024-05-09T02:45:04.536Z,8.7521
2024-05-09T02:46:07.161Z,9.0522
2024-05-09T02:47:09.843Z,8.5116
2024-05-09T02:48:13.379Z,9.6418
2024-05-09T02:49:14.925Z,9.3733
2024-05-09T02:50:25.998Z,9.4423
2024-05-09T02:51:20.104Z,8.8235
2024-05-09T02:52:22.620Z,8.7018
2024-05-09T02:53:25.270Z,8.8756
2024-05-09T02:54:27.819Z,9.6868
2024-05-09T02:55:30.382Z,8.9897
2024-05-09T02:56:33.027Z,9.2004
2024-05-09T02:57:35.534Z,8.3292
2024-05-09T02:58:38.164Z,9.0854
2024-05-09T02:59:40.720Z,9.4929
2024-05-09T03:00:43.434Z,9.0398
2024-05-09T03:01:46.064Z,9.0878
2024-05-09T03:02:48.619Z,8.9739
2024-05-09T03:03:51.180Z,9.1877
2024-05-09T03:04:53.764Z,9.5678
2024-05-09T03:05:56.387Z,9.0025
2024-05-09T03:06:58.843Z,8.7581
2024-05-09T03:08:01.532Z,8.5692
2024-05-09T03:09:04.000Z,9.2079
2024-05-09T03:10:12.218Z,9.0415
2024-05-09T03:11:09.248Z,8.9170
2024-05-09T03:12:12.015Z,9.7724
2024-05-09T03:13:15.606Z,9.6760
2024-05-09T03:14:17.013Z,8.1614
2024-05-09T03:15:19.478Z,9.2406
2024-05-09T03:16:22.047Z,9.3375
2024-05-09T03:17:24.921Z,9.1177
2024-05-09T03:18:27.380Z,9.7688
2024-05-09T03:19:29.886Z,8.8976
2024-05-09T03:20:34.757Z,9.2787
2024-05-09T03:21:34.994Z,9.4844
2024-05-09T03:22:37.555Z,9.4844
2024-05-09T03:23:40.232Z,8.8653
2024-05-09T03:24:42.728Z,8.7152
2024-05-09T03:25:45.394Z,9.1116
2024-05-09T03:26:47.902Z,9.2929
2024-05-09T03:27:50.484Z,10.2157
2024-05-09T03:28:53.136Z,8.6333
2024-05-09T03:29:55.657Z,9.3570
2024-05-09T03:30:58.234Z,9.1660
2024-05-09T03:32:00.954Z,8.7862
2024-05-09T03:33:03.625Z,9.2977
2024-05-09T03:34:06.183Z,8.9502
2024-05-09T03:35:08.625Z,9.4884
2024-05-09T03:36:11.537Z,9.1987
2024-05-09T03:37:13.784Z,9.5718
2024-05-09T03:38:16.572Z,9.4041
2024-05-09T03:39:18.927Z,9.5794
2024-05-09T03:40:26.358Z,8.9478
2024-05-09T03:41:24.159Z,9.3053
2024-05-09T03:42:26.685Z,8.7095
2024-05-09T03:43:29.253Z,9.2512
2024-05-09T03:44:31.928Z,9.4471
2024-05-09T03:45:34.452Z,9.0779
2024-05-09T03:46:37.034Z,9.5665
2024-05-09T03:47:39.782Z,9.5489
2024-05-09T03:48:42.308Z,9.1083
2024-05-09T03:49:44.862Z,9.7978
2024-05-09T03:50:47.474Z,9.1016
2024-05-09T03:51:49.939Z,9.0271
2024-05-09T03:52:52.655Z,9.0012
2024-05-09T03:53:55.177Z,9.6636
2024-05-09T03:54:57.736Z,9.0315
2024-05-09T03:56:00.394Z,9.2267
2024-05-09T03:57:02.877Z,9.5633
2024-05-09T03:58:05.455Z,9.0453
2024-05-09T03:59:08.089Z,9.2282
2024-05-09T04:00:17.824Z,9.7502
2024-05-09T04:01:13.252Z,9.3196
2024-05-09T04:02:15.864Z,9.3919
2024-05-09T04:03:18.758Z,9.6383
2024-05-09T04:04:21.090Z,9.1480
2024-05-09T04:05:23.562Z,9.4674
2024-05-09T04:06:26.176Z,8.9378
2024-05-09T04:07:28.773Z,8.9225
2024-05-09T04:08:31.367Z,9.1107
2024-05-09T04:09:33.903Z,9.1638
2024-05-09T04:10:36.472Z,8.3945
2024-05-09T04:11:39.156Z,9.3614
2024-05-09T04:12:41.666Z,9.3710
2024-05-09T04:13:44.261Z,9.1606
2024-05-09T04:14:46.823Z,8.8894
2024-05-09T04:15:49.406Z,8.9836
2024-05-09T04:16:52.076Z,8.9354
2024-05-09T04:17:54.922Z,9.1249
2024-05-09T04:18:57.270Z,8.8834
2024-05-09T04:19:59.787Z,9.4576
2024-05-09T04:21:02.501Z,9.0558
2024-05-09T04:22:04.912Z,8.4993
2024-05-09T04:23:08.603Z,8.7787
2024-05-09T04:24:10.066Z,9.2359
2024-05-09T04:25:12.683Z,9.2092
2024-05-09T04:26:15.266Z,9.3930
2024-05-09T04:27:17.871Z,9.3106
2024-05-09T04:28:20.400Z,9.4800
2024-05-09T04:29:23.041Z,9.3859
2024-05-09T04:30:34.035Z,9.7960
2024-05-09T04:31:28.166Z,9.5420
2024-05-09T04:32:30.954Z,9.7778
2024-05-09T04:33:33.575Z,9.3864
2024-05-09T04:34:36.031Z,9.5006
2024-05-09T04:35:38.913Z,8.6243
2024-05-09T04:36:43.861Z,9.3080
2024-05-09T04:37:43.762Z,9.1301
2024-05-09T04:38:46.310Z,9.1096
2024-05-09T04:39:48.843Z,9.5908
2024-05-09T04:40:51.529Z,9.2458
2024-05-09T04:41:54.018Z,9.1452
2024-05-09T04:42:56.610Z,9.3631
2024-05-09T04:43:59.206Z,9.0273
2024-05-09T04:45:01.764Z,8.9244
2024-05-09T04:46:04.345Z,8.8316
2024-05-09T04:47:06.984Z,9.6552
2024-05-09T04:48:09.806Z,9.8468
2024-05-09T04:49:12.214Z,9.7403
2024-05-09T04:50:20.987Z,8.8811
2024-05-09T04:51:17.323Z,8.5262
2024-05-09T04:52:19.889Z,9.6664
2024-05-09T04:53:22.512Z,9.9131
2024-05-09T04:54:33.809Z,9.5309
2024-05-09T04:55:27.677Z,9.4062
2024-05-09T04:56:30.234Z,8.8719
2024-05-09T04:57:32.785Z,9.3230
2024-05-09T04:58:35.371Z,9.1921
2024-05-09T04:59:38.018Z,9.1998
2024-05-09T05:00:41.326Z,8.8631
2024-05-09T05:01:43.118Z,9.4314
2024-05-09T05:02:45.784Z,9.3552
2024-05-09T05:03:48.420Z,8.7377
2024-05-09T05:04:51.021Z,9.2127
2024-05-09T05:05:53.512Z,9.2082
2024-05-09T05:06:57.779Z,9.3721
2024-05-09T05:07:58.695Z,8.8091
2024-05-09T05:09:01.245Z,8.9094
2024-05-09T05:10:05.749Z,9.3604
2024-05-09T05:11:06.447Z,9.0663
2024-05-09T05:12:09.165Z,8.6102
2024-05-09T05:13:11.577Z,8.7003
2024-05-09T05:14:14.180Z,9.6973
2024-05-09T05:15:16.732Z,8.8078
2024-05-09T05:16:19.322Z,10.0713
2024-05-09T05:17:22.010Z,9.2750
2024-05-09T05:18:24.650Z,9.7265
2024-05-09T05:19:27.299Z,9.8400
2024-05-09T05:20:33.593Z,9.5210
2024-05-09T05:21:32.334Z,9.6496
2024-05-09T05:22:34.870Z,9.0227
2024-05-09T05:23:37.505Z,10.0128
2024-05-09T05:24:39.991Z,9.5487
2024-05-09T05:25:42.585Z,9.5933
2024-05-09T05:26:45.193Z,9.7171
2024-05-09T05:27:47.743Z,9.3243
2024-05-09T05:28:50.377Z,9.1941
2024-05-09T05:29:52.941Z,9.0446
2024-05-09T05:30:55.522Z,9.0585
2024-05-09T05:31:58.210Z,9.3933
2024-05-09T05:33:01.001Z,8.8226
2024-05-09T05:34:03.355Z,9.4368
2024-05-09T05:35:05.913Z,8.8581
2024-05-09T05:36:08.466Z,8.8810
2024-05-09T05:37:11.008Z,9.1480
2024-05-09T05:38:13.657Z,8.4294
2024-05-09T05:39:16.249Z,9.0868
2024-05-09T05:40:28.014Z,9.1567
2024-05-09T05:41:21.432Z,8.7723
2024-05-09T05:42:24.004Z,8.9494
2024-05-09T05:43:26.591Z,8.8915
2024-05-09T05:44:29.306Z,9.0892
2024-05-09T05:45:31.757Z,9.4801
2024-05-09T05:46:34.359Z,9.6343
2024-05-09T05:47:37.043Z,9.2626
2024-05-09T05:48:39.795Z,9.4766
2024-05-09T05:49:42.139Z,9.5272
2024-05-09T05:50:44.779Z,9.1857
2024-05-09T05:51:47.314Z,9.0460
2024-05-09T05:52:49.882Z,9.6225
2024-05-09T05:53:52.459Z,9.2661
2024-05-09T05:54:55.048Z,9.8955
2024-05-09T05:55:57.682Z,9.6341
2024-05-09T05:57:00.216Z,9.7796
2024-05-09T05:58:02.875Z,9.1007
2024-05-09T05:59:05.417Z,9.6473
2024-05-09T06:00:09.782Z,9.4642
2024-05-09T06:01:10.562Z,9.6524
2024-05-09T06:02:13.230Z,9.6315
2024-05-09T06:03:15.838Z,9.7003
2024-05-09T06:04:18.455Z,9.6881
2024-05-09T06:05:20.898Z,9.3549
2024-05-09T06:06:23.469Z,9.2294
2024-05-09T06:07:26.031Z,9.2675
2024-05-09T06:08:30.532Z,9.3306
2024-05-09T06:09:31.276Z,8.9126
2024-05-09T06:10:38.868Z,9.1892
2024-05-09T06:11:36.434Z,9.8895
2024-05-09T06:12:38.969Z,9.1366
2024-05-09T06:13:41.537Z,9.8476
2024-05-09T06:14:44.123Z,9.7624
2024-05-09T06:15:46.720Z,9.5106
2024-05-09T06:16:49.337Z,9.7842
2024-05-09T06:17:51.999Z,9.5977
2024-05-09T06:18:54.688Z,9.3923
2024-05-09T06:19:57.074Z,9.0694
2024-05-09T06:20:59.679Z,8.8827
2024-05-09T06:22:02.218Z,9.6489
2024-05-09T06:23:05.062Z,9.8337
2024-05-09T06:24:07.384Z,9.7924
2024-05-09T06:25:09.983Z,9.8535
2024-05-09T06:26:12.583Z,9.8864
2024-05-09T06:27:15.146Z,10.0776
2024-05-09T06:28:17.710Z,9.8565
2024-05-09T06:29:20.341Z,9.9277
2024-05-09T06:30:30.277Z,9.8110
2024-05-09T06:31:25.476Z,9.6426
2024-05-09T06:32:28.237Z,9.2061
2024-05-09T06:33:30.853Z,9.6846
2024-05-09T06:34:33.387Z,9.2941
2024-05-09T06:35:36.114Z,10.1382
2024-05-09T06:36:38.514Z,10.0347
2024-05-09T06:37:40.968Z,9.4043
2024-05-09T06:38:43.566Z,10.0742
2024-05-09T06:39:46.136Z,9.8332
2024-05-09T06:40:48.783Z,9.7174
2024-05-09T06:41:51.317Z,10.3882
2024-05-09T06:42:53.881Z,9.6443
2024-05-09T06:43:56.513Z,9.2824
2024-05-09T06:44:59.072Z,9.2207
2024-05-09T06:46:01.663Z,9.5525
2024-05-09T06:47:04.324Z,9.3493
2024-05-09T06:48:07.080Z,9.1855
2024-05-09T06:49:09.560Z,9.2460
2024-05-09T06:50:20.217Z,9.3248
2024-05-09T06:51:14.729Z,9.1350
2024-05-09T06:52:17.157Z,9.1645
2024-05-09T06:53:19.755Z,9.7841
2024-05-09T06:54:22.331Z,9.9150
2024-05-09T06:55:24.891Z,10.0484
2024-05-09T06:56:27.518Z,9.3491
2024-05-09T06:57:30.075Z,9.8311
2024-05-09T06:58:32.649Z,9.0008
2024-05-09T06:59:35.380Z,9.4659
2024-05-09T07:00:40.340Z,9.0411
2024-05-09T07:01:40.483Z,9.7780
2024-05-09T07:02:43.116Z,9.2949
2024-05-09T07:03:45.733Z,9.7127
2024-05-09T07:04:48.244Z,9.0504
2024-05-09T07:05:50.757Z,9.2582
2024-05-09T07:06:53.370Z,9.2332
2024-05-09T07:07:55.916Z,9.4249
2024-05-09T07:08:58.527Z,9.2956
2024-05-09T07:10:01.086Z,9.5405
2024-05-09T07:11:03.809Z,9.0860
2024-05-09T07:12:06.373Z,9.5171
2024-05-09T07:13:08.823Z,9.7320
2024-05-09T07:14:11.495Z,9.9155
2024-05-09T07:15:13.984Z,9.4621
2024-05-09T07:16:16.625Z,9.2868
2024-05-09T07:17:19.269Z,9.0053
2024-05-09T07:18:21.941Z,9.1849
2024-05-09T07:19:24.576Z,9.5792
2024-05-09T07:20:34.085Z,9.2480
2024-05-09T07:21:29.485Z,9.4619
2024-05-09T07:22:32.064Z,9.5005
2024-05-09T07:23:34.815Z,9.1460
2024-05-09T07:24:37.240Z,9.0851
2024-05-09T07:25:39.832Z,8.7909
2024-05-09T07:26:42.463Z,9.3336
2024-05-09T07:27:44.972Z,9.8304
2024-05-09T07:28:47.618Z,9.7930
2024-05-09T07:29:50.134Z,9.2374
2024-05-09T07:30:52.729Z,9.1516
2024-05-09T07:31:55.343Z,8.9723
2024-05-09T07:32:58.115Z,9.3405
2024-05-09T07:34:00.705Z,9.0973
2024-05-09T07:35:03.182Z,9.1588
2024-05-09T07:36:05.657Z,8.9461
2024-05-09T07:37:08.262Z,8.3148
2024-05-09T07:38:10.862Z,8.4340
2024-05-09T07:39:13.367Z,8.4347
2024-05-09T07:40:24.882Z,8.4728
2024-05-09T07:41:18.594Z,8.7972
2024-05-09T07:42:21.126Z,8.9385
2024-05-09T07:43:23.743Z,8.9265
2024-05-09T07:44:26.285Z,8.9552
2024-05-09T07:45:45.219Z,8.7707
2024-05-09T07:47:37.114Z,9.4472
2024-05-09T07:50:34.437Z,8.8874
2024-05-09T07:53:14.438Z,8.4148
2024-05-09T07:53:34.619Z,8.1079
2024-05-09T07:53:52.382Z,8.7663
2024-05-09T07:54:52.293Z,8.7706
2024-05-09T07:55:55.248Z,9.2134
2024-05-09T07:56:57.564Z,9.0969
2024-05-09T07:57:59.914Z,9.1041
2024-05-09T07:59:02.457Z,8.8315
2024-05-09T08:00:06.655Z,9.4829
2024-05-09T08:01:07.715Z,9.0612
2024-05-09T08:02:10.374Z,9.2269
2024-05-09T08:03:12.859Z,8.8098
2024-05-09T08:04:15.469Z,8.8360
2024-05-09T08:05:18.102Z,8.4881
2024-05-09T08:06:20.538Z,8.2472
2024-05-09T08:07:23.192Z,9.1757
2024-05-09T08:08:25.722Z,9.0280
2024-05-09T08:09:28.339Z,9.2346
2024-05-09T08:10:30.960Z,7.9770
2024-05-09T08:11:33.504Z,8.3749
2024-05-09T08:12:36.099Z,8.0324
2024-05-09T08:13:38.725Z,8.2169
2024-05-09T08:14:41.213Z,8.5499
2024-05-09T08:15:43.896Z,8.3594
2024-05-09T08:16:46.390Z,8.4490
2024-05-09T08:17:49.063Z,8.9557
2024-05-09T08:18:51.671Z,8.5883
2024-05-09T08:19:54.136Z,8.2758
2024-05-09T08:20:56.719Z,7.5090
2024-05-09T08:21:59.341Z,8.5448
2024-05-09T08:23:01.887Z,8.6028
2024-05-09T08:24:04.485Z,11.4745
2024-05-09T08:25:07.076Z,20.9762
2024-05-09T08:26:09.639Z,32.0379
2024-05-09T08:27:12.242Z,44.3086
2024-05-09T08:28:14.852Z,60.7927
2024-05-09T08:29:17.407Z,67.4217
2024-05-09T08:30:25.304Z,73.3772
2024-05-09T08:31:22.792Z,81.5231
2024-05-09T08:32:25.185Z,60.6776
2024-05-09T08:33:27.835Z,81.8618
2024-05-09T08:34:30.358Z,74.0921
2024-05-09T08:35:32.934Z,69.6035
2024-05-09T08:36:35.513Z,64.0753
2024-05-09T08:37:40.483Z,65.8984
2024-05-09T08:38:40.656Z,64.9759
2024-05-09T08:39:43.258Z,83.1511
2024-05-09T08:40:45.898Z,120.4430
2024-05-09T08:41:48.398Z,99.5704
2024-05-09T08:42:51.003Z,74.7367
2024-05-09T08:43:53.562Z,71.8278
2024-05-09T08:44:56.133Z,61.2699
2024-05-09T08:45:58.766Z,63.4825
2024-05-09T08:47:01.385Z,76.1937
2024-05-09T08:48:04.070Z,76.4395
2024-05-09T08:49:06.642Z,77.2767
2024-05-09T08:50:13.783Z,80.1265
2024-05-09T08:51:11.641Z,72.6330
2024-05-09T08:52:14.229Z,73.8114
2024-05-09T08:53:16.822Z,77.5583
2024-05-09T08:54:19.395Z,75.8635
2024-05-09T08:55:21.994Z,77.5787
2024-05-09T08:56:24.600Z,78.6139
2024-05-09T08:57:27.228Z,84.4768
2024-05-09T08:58:29.721Z,87.9276
2024-05-09T08:59:32.340Z,85.3976
2024-05-09T09:00:37.310Z,78.0300
2024-05-09T09:01:38.136Z,80.3780
2024-05-09T09:02:40.250Z,82.9896
2024-05-09T09:03:42.848Z,86.2239
2024-05-09T09:04:45.295Z,90.6359
2024-05-09T09:05:47.839Z,91.5147
2024-05-09T09:06:51.453Z,89.8645
2024-05-09T09:07:52.975Z,83.8963
2024-05-09T09:08:55.550Z,79.1281
2024-05-09T09:09:58.154Z,78.0955
2024-05-09T09:11:00.761Z,73.7838
2024-05-09T09:12:03.327Z,77.5396
2024-05-09T09:13:05.932Z,82.6540
2024-05-09T09:14:08.484Z,81.7564
2024-05-09T09:15:11.076Z,82.9748
2024-05-09T09:16:13.750Z,75.1997
2024-05-09T09:17:16.338Z,75.5985
2024-05-09T09:18:19.292Z,70.7574
2024-05-09T09:19:21.581Z,75.7859
2024-05-09T09:20:29.402Z,66.4744
2024-05-09T09:21:26.773Z,62.6488
2024-05-09T09:22:29.164Z,61.6068
2024-05-09T09:23:31.880Z,59.0391
2024-05-09T09:24:34.373Z,63.0339
2024-05-09T09:25:36.920Z,58.7374
2024-05-09T09:26:39.503Z,57.6546
2024-05-09T09:27:42.167Z,57.5713
2024-05-09T09:28:44.669Z,58.9017
2024-05-09T09:29:47.293Z,55.2198
2024-05-09T09:30:49.905Z,63.0451
2024-05-09T09:31:52.445Z,63.7778
2024-05-09T09:32:55.123Z,58.1430
2024-05-09T09:33:57.936Z,56.8852
2024-05-09T09:35:00.237Z,64.8054
2024-05-09T09:36:02.753Z,63.3736
2024-05-09T09:37:05.404Z,58.3176
2024-05-09T09:38:07.992Z,61.9152
2024-05-09T09:39:10.560Z,63.9779
2024-05-09T09:40:13.468Z,66.1414
2024-05-09T09:41:15.758Z,63.7463
2024-05-09T09:42:18.265Z,61.2189
2024-05-09T09:43:21.177Z,58.7302
2024-05-09T09:44:23.412Z,64.3751
2024-05-09T09:45:26.053Z,64.8298
2024-05-09T09:46:28.740Z,63.2070
2024-05-09T09:47:31.300Z,61.4785
2024-05-09T09:48:34.080Z,66.8355
2024-05-09T09:49:36.411Z,62.7325
2024-05-09T09:50:38.965Z,61.2131
2024-05-09T09:51:41.608Z,63.4385
2024-05-09T09:52:44.123Z,65.4950
2024-05-09T09:53:46.748Z,68.8780
2024-05-09T09:54:49.381Z,67.4915
2024-05-09T09:55:51.897Z,65.9789
2024-05-09T09:56:54.453Z,66.2523
2024-05-09T09:57:57.112Z,66.6112
2024-05-09T09:58:59.621Z,65.2055
2024-05-09T10:00:03.119Z,63.4372
2024-05-09T10:01:04.986Z,65.4222
2024-05-09T10:02:07.600Z,66.5182
2024-05-09T10:03:10.133Z,65.7326
2024-05-09T10:04:12.692Z,60.1752
2024-05-09T10:05:15.160Z,58.6241
2024-05-09T10:06:17.681Z,57.3786
2024-05-09T10:07:20.354Z,55.1626
2024-05-09T10:08:22.858Z,57.9228
2024-05-09T10:09:25.473Z,56.8101
2024-05-09T10:10:32.317Z,54.9807
2024-05-09T10:11:31.679Z,56.8125
2024-05-09T10:12:33.267Z,60.4589
2024-05-09T10:13:35.863Z,59.9512
2024-05-09T10:14:38.342Z,56.5667
2024-05-09T10:15:40.966Z,53.6849
2024-05-09T10:16:43.528Z,52.0431
2024-05-09T10:17:46.150Z,53.8167
2024-05-09T10:18:48.861Z,53.5521
2024-05-09T10:19:51.389Z,51.7103
2024-05-09T10:20:53.826Z,53.1170
2024-05-09T10:21:56.427Z,49.7162
2024-05-09T10:22:59.055Z,49.7385
2024-05-09T10:24:01.583Z,45.3097
2024-05-09T10:25:05.108Z,47.0549
2024-05-09T10:26:06.748Z,49.4170
2024-05-09T10:27:09.400Z,48.3389
2024-05-09T10:28:12.081Z,47.2021
2024-05-09T10:29:14.517Z,49.7577
2024-05-09T10:30:25.816Z,53.9222
2024-05-09T10:31:19.683Z,57.3303
2024-05-09T10:32:22.363Z,55.6320
2024-05-09T10:33:24.987Z,55.8173
2024-05-09T10:34:27.632Z,51.3810
2024-05-09T10:35:30.023Z,47.8354
2024-05-09T10:36:32.644Z,45.3024
2024-05-09T10:37:35.236Z,42.4452
2024-05-09T10:38:37.748Z,49.0458
2024-05-09T10:39:40.359Z,48.7625
2024-05-09T10:40:42.964Z,47.1984
2024-05-09T10:41:45.493Z,49.0425
2024-05-09T10:42:48.183Z,45.6829
2024-05-09T10:43:50.705Z,45.0912
2024-05-09T10:44:53.338Z,46.8528
2024-05-09T10:45:55.856Z,47.3660
2024-05-09T10:46:58.437Z,48.4945
2024-05-09T10:48:01.163Z,48.1970
2024-05-09T10:49:06.294Z,44.7821
2024-05-09T10:50:12.710Z,45.3915
2024-05-09T10:51:08.744Z,49.2812
2024-05-09T10:52:11.350Z,49.4317
2024-05-09T10:53:13.895Z,48.3270
2024-05-09T10:54:16.509Z,45.2905
2024-05-09T10:55:19.285Z,42.9628
2024-05-09T10:56:21.663Z,42.9656
2024-05-09T10:57:24.230Z,42.5583
2024-05-09T10:58:26.805Z,39.7735
2024-05-09T10:59:29.400Z,43.5518
2024-05-09T11:00:35.863Z,46.3050
2024-05-09T11:01:34.639Z,47.0224
2024-05-09T11:02:37.291Z,47.0804
2024-05-09T11:03:40.127Z,45.7367
2024-05-09T11:04:42.485Z,46.5773
2024-05-09T11:05:45.094Z,46.1689
2024-05-09T11:06:47.532Z,46.1664
2024-05-09T11:07:50.071Z,46.1503
2024-05-09T11:08:52.649Z,44.8592
2024-05-09T11:09:55.301Z,45.5452
2024-05-09T11:10:57.855Z,44.5994
2024-05-09T11:12:00.463Z,44.4958
2024-05-09T11:13:03.048Z,45.4225
2024-05-09T11:14:05.565Z,41.9161
2024-05-09T11:15:08.180Z,43.4911
2024-05-09T11:16:10.801Z,42.7061
2024-05-09T11:17:13.322Z,43.0387
2024-05-09T11:18:16.063Z,42.2768
2024-05-09T11:19:18.673Z,41.0581
2024-05-09T11:20:26.942Z,42.3227
2024-05-09T11:21:23.652Z,42.7144
2024-05-09T11:22:26.289Z,41.0105
2024-05-09T11:23:28.804Z,42.6737
2024-05-09T11:24:31.407Z,42.6828
2024-05-09T11:25:33.975Z,41.7710
2024-05-09T11:26:36.612Z,40.8374
2024-05-09T11:27:39.184Z,43.0186
2024-05-09T11:28:41.734Z,44.4648
2024-05-09T11:29:44.315Z,43.6105
2024-05-09T11:30:46.983Z,41.6860
2024-05-09T11:31:49.668Z,42.7448
2024-05-09T11:32:52.298Z,42.7095
2024-05-09T11:33:54.846Z,43.6176
2024-05-09T11:34:57.244Z,41.9030
2024-05-09T11:35:59.823Z,42.2412
2024-05-09T11:37:02.494Z,41.4590
2024-05-09T11:38:04.995Z,41.0348
2024-05-09T11:39:07.593Z,39.5480
2024-05-09T11:40:16.814Z,38.5982
2024-05-09T11:41:12.774Z,41.0398
2024-05-09T11:42:15.326Z,39.8043
2024-05-09T11:43:18.053Z,40.0195
2024-05-09T11:44:20.523Z,40.4485
2024-05-09T11:45:23.148Z,39.8246
2024-05-09T11:46:25.819Z,40.9259
2024-05-09T11:47:28.289Z,40.3525
2024-05-09T11:48:31.148Z,38.7981
2024-05-09T11:49:33.563Z,38.6757
2024-05-09T11:50:36.444Z,39.1699
2024-05-09T11:51:38.637Z,38.3888
2024-05-09T11:52:41.164Z,39.0891
2024-05-09T11:53:43.762Z,39.3561
2024-05-09T11:54:46.381Z,38.4333
2024-05-09T11:55:48.946Z,38.5864
2024-05-09T11:56:51.604Z,37.4754
2024-05-09T11:57:54.097Z,37.8787
2024-05-09T11:58:56.664Z,36.5622
2024-05-09T11:59:59.249Z,36.6360
2024-05-09T12:01:01.979Z,35.9996
2024-05-09T12:02:04.589Z,36.1645
2024-05-09T12:03:07.099Z,37.1968
2024-05-09T12:04:09.699Z,36.4588
2024-05-09T12:05:12.246Z,36.3592
2024-05-09T12:06:14.769Z,37.1365
2024-05-09T12:07:17.439Z,36.9454
2024-05-09T12:08:19.934Z,36.4507
2024-05-09T12:09:22.494Z,36.3487
2024-05-09T12:10:32.125Z,35.8295
2024-05-09T12:11:27.703Z,36.4391
2024-05-09T12:12:30.302Z,34.3179
2024-05-09T12:13:32.957Z,34.8931
2024-05-09T12:14:35.447Z,36.3800
2024-05-09T12:15:38.879Z,35.5533
2024-05-09T12:16:40.653Z,33.9314
2024-05-09T12:17:43.288Z,34.7029
2024-05-09T12:18:45.904Z,33.9970
2024-05-09T12:19:48.419Z,33.1457
2024-05-09T12:20:50.949Z,34.5136
2024-05-09T12:21:53.553Z,35.2052
2024-05-09T12:22:56.099Z,33.8486
2024-05-09T12:23:58.679Z,32.6945
2024-05-09T12:25:01.316Z,32.0827
2024-05-09T12:26:03.868Z,33.2706
2024-05-09T12:27:06.457Z,30.9544
2024-05-09T12:28:09.198Z,31.1546
2024-05-09T12:29:11.622Z,30.1217
2024-05-09T12:30:20.729Z,30.5536
2024-05-09T12:31:16.807Z,31.1728
2024-05-09T12:32:19.420Z,31.9748
2024-05-09T12:33:22.144Z,31.8131
2024-05-09T12:34:24.574Z,33.3069
2024-05-09T12:35:27.152Z,31.4706
2024-05-09T12:36:29.702Z,30.2282
2024-05-09T12:37:32.313Z,29.1299
2024-05-09T12:38:34.915Z,30.2678
2024-05-09T12:39:37.538Z,29.8548
2024-05-09T12:40:40.152Z,30.3891
2024-05-09T12:41:42.658Z,30.7153
2024-05-09T12:42:45.273Z,32.0262
2024-05-09T12:43:47.807Z,31.4489
2024-05-09T12:44:50.401Z,30.8765
2024-05-09T12:45:53.027Z,29.8292
2024-05-09T12:46:55.560Z,28.1669
2024-05-09T12:47:58.316Z,28.6160
2024-05-09T12:49:01.127Z,28.2931
2024-05-09T12:50:04.952Z,29.0683
2024-05-09T12:51:05.910Z,30.0220
2024-05-09T12:52:08.630Z,30.0223
2024-05-09T12:53:11.067Z,30.0159
2024-05-09T12:54:13.654Z,30.1758
2024-05-09T12:55:16.410Z,29.0028